createdAt,value
2022-09-23T00:01:29.737Z,101773.31
2022-09-23T00:03:59.663Z,101779.59
2022-09-23T00:06:30.055Z,101774.25
2022-09-23T00:08:57.110Z,101774.13
2022-09-23T00:11:27.440Z,101769.75
2022-09-23T00:13:56.950Z,101772.44
2022-09-23T00:16:28.620Z,101774.22
2022-09-23T00:18:56.195Z,101772.44
2022-09-23T00:21:23.873Z,101767.09
2022-09-23T00:23:51.884Z,101773.25
2022-09-23T00:26:21.005Z,101764.50
2022-09-23T00:28:49.810Z,101764.38
2022-09-23T00:31:25.689Z,101752.09
2022-09-23T00:33:57.386Z,101753.03
2022-09-23T00:36:25.639Z,101758.44
2022-09-23T00:38:53.539Z,101751.31
2022-09-23T00:41:21.611Z,101748.63
2022-09-23T00:44:01.831Z,101753.94
2022-09-23T00:46:37.754Z,101749.59
2022-09-23T00:49:11.150Z,101748.69
2022-09-23T00:51:41.784Z,101747.84
2022-09-23T00:54:09.711Z,101748.69
2022-09-23T00:56:40.331Z,101744.34
2022-09-23T01:01:38.362Z,101732.81
2022-09-23T01:04:07.931Z,101727.63
2022-09-23T01:06:35.186Z,101726.75
2022-09-23T01:09:02.758Z,101729.34
2022-09-23T01:11:45.307Z,101736.44
2022-09-23T01:14:37.970Z,101727.63
2022-09-23T01:17:24.377Z,101725.91
2022-09-23T01:20:10.215Z,101720.59
2022-09-23T01:23:11.138Z,101719.78
2022-09-23T01:26:05.042Z,101724.13
2022-09-23T01:28:50.928Z,101713.69
2022-09-23T01:31:24.756Z,101720.69
2022-09-23T01:34:01.819Z,101715.34
2022-09-23T01:36:45.930Z,101716.25
2022-09-23T01:39:16.784Z,101716.25
2022-09-23T01:41:56.773Z,101710.00
2022-09-23T01:44:36.055Z,101709.09
2022-09-23T01:47:11.127Z,101704.75
2022-09-23T01:49:58.218Z,101703.81
2022-09-23T01:52:37.446Z,101702.06
2022-09-23T01:55:08.851Z,101705.56
2022-09-23T01:57:43.267Z,101709.09
2022-09-23T02:00:22.538Z,101710.94
2022-09-23T02:03:04.686Z,101706.47
2022-09-23T02:05:46.296Z,101703.00
2022-09-23T02:08:39.369Z,101711.81
2022-09-23T02:11:16.908Z,101715.50
2022-09-23T02:14:02.385Z,101709.28
2022-09-23T02:16:35.080Z,101718.19
2022-09-23T02:19:15.092Z,101712.13
2022-09-23T02:21:52.197Z,101711.19
2022-09-23T02:24:35.107Z,101714.72
2022-09-23T02:27:33.459Z,101717.38
2022-09-23T02:30:13.059Z,101712.16
2022-09-23T02:32:57.563Z,101712.97
2022-09-23T02:36:07.201Z,101705.91
2022-09-23T02:38:44.250Z,101699.78
2022-09-23T02:41:26.628Z,101708.66
2022-09-23T02:44:00.103Z,101714.78
2022-09-23T02:46:30.492Z,101708.63
2022-09-23T02:49:13.235Z,101709.53
2022-09-23T02:51:41.409Z,101706.00
2022-09-23T02:54:14.923Z,101706.88
2022-09-23T02:56:42.389Z,101707.72
2022-09-23T02:59:10.896Z,101702.50
2022-09-23T03:02:13.843Z,101699.91
2022-09-23T03:05:04.187Z,101707.78
2022-09-23T03:08:04.476Z,101699.00
2022-09-23T03:10:37.214Z,101701.66
2022-09-23T03:13:29.142Z,101705.22
2022-09-23T03:16:11.940Z,101702.59
2022-09-23T03:18:52.139Z,101704.41
2022-09-23T03:21:47.340Z,101703.47
2022-09-23T03:24:15.924Z,101703.50
2022-09-23T03:26:47.486Z,101703.53
2022-09-23T03:29:17.446Z,101697.28
2022-09-23T03:31:45.319Z,101706.16
2022-09-23T03:34:28.767Z,101703.63
2022-09-23T03:37:01.078Z,101701.75
2022-09-23T03:39:42.529Z,101701.88
2022-09-23T03:42:24.376Z,101700.09
2022-09-23T03:44:57.606Z,101699.25
2022-09-23T03:47:28.979Z,101699.22
2022-09-23T03:49:57.014Z,101697.41
2022-09-23T03:52:26.360Z,101695.69
2022-09-23T03:54:53.896Z,101696.59
2022-09-23T03:57:24.272Z,101694.84
2022-09-23T04:00:02.814Z,101695.75
2022-09-23T04:02:39.370Z,101692.25
2022-09-23T04:05:08.017Z,101699.31
2022-09-23T04:07:35.459Z,101698.47
2022-09-23T04:10:02.638Z,101701.97
2022-09-23T04:12:29.909Z,101696.69
2022-09-23T04:15:00.213Z,101702.84
2022-09-23T04:17:30.280Z,101691.41
2022-09-23T04:20:00.028Z,101707.25
2022-09-23T04:22:27.215Z,101695.81
2022-09-23T04:25:00.555Z,101706.38
2022-09-23T04:27:27.667Z,101705.50
2022-09-23T04:29:54.791Z,101704.59
2022-09-23T04:32:21.867Z,101711.66
2022-09-23T04:34:48.820Z,101716.94
2022-09-23T04:37:15.893Z,101713.44
2022-09-23T04:39:43.693Z,101711.69
2022-09-23T04:42:11.473Z,101715.19
2022-09-23T04:44:39.222Z,101716.94
2022-09-23T04:47:06.823Z,101715.19
2022-09-23T04:49:34.342Z,101716.03
2022-09-23T04:52:02.953Z,101723.13
2022-09-23T04:54:30.573Z,101717.81
2022-09-23T04:56:57.802Z,101712.59
2022-09-23T04:59:25.209Z,101723.16
2022-09-23T05:01:52.831Z,101722.28
2022-09-23T05:04:25.643Z,101724.91
2022-09-23T05:06:52.679Z,101723.16
2022-09-23T05:09:19.698Z,101720.53
2022-09-23T05:11:47.346Z,101725.78
2022-09-23T05:14:14.729Z,101724.06
2022-09-23T05:16:42.095Z,101723.16
2022-09-23T05:19:09.168Z,101725.81
2022-09-23T05:21:38.037Z,101724.91
2022-09-23T05:24:05.906Z,101720.53
2022-09-23T05:26:33.715Z,101717.03
2022-09-23T05:29:01.047Z,101724.91
2022-09-23T05:31:29.836Z,101724.06
2022-09-23T05:33:59.823Z,101721.41
2022-09-23T05:36:34.303Z,101715.25
2022-09-23T05:39:08.659Z,101707.34
2022-09-23T05:41:38.515Z,101717.00
2022-09-23T05:44:08.493Z,101713.50
2022-09-23T05:46:39.037Z,101718.78
2022-09-23T05:49:06.904Z,101719.69
2022-09-23T05:51:35.928Z,101722.31
2022-09-23T05:54:05.654Z,101721.41
2022-09-23T05:56:34.935Z,101710.84
2022-09-23T05:59:03.083Z,101710.00
2022-09-23T06:01:34.322Z,101718.78
2022-09-23T06:04:07.001Z,101711.72
2022-09-23T06:06:40.363Z,101710.00
2022-09-23T06:09:11.744Z,101710.00
2022-09-23T06:11:42.709Z,101710.00
2022-09-23T06:14:13.284Z,101715.22
2022-09-23T06:16:43.818Z,101711.72
2022-09-23T06:19:14.379Z,101719.63
2022-09-23T06:21:42.063Z,101717.00
2022-09-23T06:24:16.341Z,101721.38
2022-09-23T06:26:48.315Z,101724.03
2022-09-23T06:29:15.607Z,101723.97
2022-09-23T06:31:43.627Z,101724.84
2022-09-23T06:34:14.836Z,101727.50
2022-09-23T06:36:45.845Z,101731.03
2022-09-23T06:39:17.043Z,101731.91
2022-09-23T06:41:45.640Z,101726.59
2022-09-23T06:44:15.021Z,101730.13
2022-09-23T06:46:44.435Z,101734.53
2022-09-23T06:49:12.615Z,101737.19
2022-09-23T06:51:40.511Z,101734.50
2022-09-23T06:54:07.857Z,101738.91
2022-09-23T06:56:39.032Z,101742.44
2022-09-23T06:59:11.264Z,101740.72
2022-09-23T07:01:39.290Z,101741.59
2022-09-23T07:04:09.720Z,101742.47
2022-09-23T07:06:39.084Z,101746.88
2022-09-23T07:09:08.746Z,101740.72
2022-09-23T07:11:36.376Z,101744.22
2022-09-23T07:14:03.897Z,101752.13
2022-09-23T07:16:33.237Z,101749.50
2022-09-23T07:19:00.407Z,101743.31
2022-09-23T07:21:28.954Z,101746.78
2022-09-23T07:23:58.387Z,101750.28
2022-09-23T07:26:30.001Z,101743.25
2022-09-23T07:29:05.332Z,101740.66
2022-09-23T07:31:39.543Z,101737.97
2022-09-23T07:34:11.926Z,101742.38
2022-09-23T07:36:41.258Z,101741.44
2022-09-23T07:39:11.852Z,101747.56
2022-09-23T07:41:39.647Z,101740.47
2022-09-23T07:44:10.063Z,101745.72
2022-09-23T07:46:37.562Z,101744.84
2022-09-23T07:49:06.084Z,101744.75
2022-09-23T07:51:36.871Z,101750.84
2022-09-23T07:54:08.247Z,101756.16
2022-09-23T07:56:36.561Z,101752.66
2022-09-23T07:59:05.479Z,101762.25
2022-09-23T08:01:39.447Z,101763.09
2022-09-23T08:04:12.650Z,101763.03
2022-09-23T08:06:48.053Z,101761.94
2022-09-23T08:09:17.164Z,101762.53
2022-09-23T08:11:44.621Z,101762.31
2022-09-23T08:14:13.818Z,101763.75
2022-09-23T08:16:42.682Z,101770.53
2022-09-23T08:19:10.250Z,101772.84
2022-09-23T08:21:39.577Z,101767.09
2022-09-23T08:24:12.005Z,101773.00
2022-09-23T08:26:39.304Z,101765.78
2022-09-23T08:29:09.961Z,101776.03
2022-09-23T08:31:37.436Z,101768.38
2022-09-23T08:34:04.602Z,101768.16
2022-09-23T08:36:32.546Z,101769.41
2022-09-23T08:38:59.889Z,101768.19
2022-09-23T08:41:44.133Z,101773.72
2022-09-23T08:44:24.226Z,101773.63
2022-09-23T08:46:57.182Z,101773.28
2022-09-23T08:49:39.849Z,101765.69
2022-09-23T08:52:18.223Z,101772.19
2022-09-23T08:54:45.931Z,101775.56
2022-09-23T08:57:35.489Z,101770.59
2022-09-23T09:00:04.494Z,101766.66
2022-09-23T09:02:36.682Z,101771.41
2022-09-23T09:05:10.230Z,101785.94
2022-09-23T09:07:41.394Z,101779.78
2022-09-23T09:10:20.235Z,101776.97
2022-09-23T09:13:07.706Z,101775.84
2022-09-23T09:15:45.751Z,101777.81
2022-09-23T09:18:23.244Z,101776.38
2022-09-23T09:21:14.161Z,101775.28
2022-09-23T09:23:50.459Z,101770.41
2022-09-23T09:26:40.469Z,101766.66
2022-09-23T09:29:35.689Z,101764.78
2022-09-23T09:32:14.272Z,101762.22
2022-09-23T09:34:50.101Z,101760.06
2022-09-23T09:37:36.045Z,101768.44
2022-09-23T09:40:07.978Z,101759.84
2022-09-23T09:42:41.125Z,101761.28
2022-09-23T09:45:29.131Z,101755.19
2022-09-23T09:48:21.076Z,101755.38
2022-09-23T09:50:52.270Z,101762.22
2022-09-23T09:53:29.639Z,101756.13
2022-09-23T09:56:07.120Z,101749.22
2022-09-23T09:58:48.980Z,101740.16
2022-09-23T10:01:29.369Z,101747.06
2022-09-23T10:07:07.569Z,101743.56
2022-09-23T10:09:39.697Z,101744.84
2022-09-23T10:12:20.540Z,101734.69
2022-09-23T10:14:52.148Z,101735.84
2022-09-23T10:17:24.634Z,101745.41
2022-09-23T10:20:00.795Z,101740.25
2022-09-23T10:22:34.000Z,101735.78
2022-09-23T10:25:07.783Z,101733.28
2022-09-23T10:27:36.684Z,101745.03
2022-09-23T10:30:23.910Z,101734.94
2022-09-23T10:32:53.331Z,101733.81
2022-09-23T10:35:23.981Z,101726.03
2022-09-23T10:38:00.058Z,101727.94
2022-09-23T10:40:49.327Z,101727.81
2022-09-23T10:43:38.171Z,101726.88
2022-09-23T10:46:46.188Z,101735.16
2022-09-23T10:49:37.878Z,101724.00
2022-09-23T10:52:28.126Z,101731.47
2022-09-23T10:55:11.967Z,101723.81
2022-09-23T10:57:46.318Z,101720.44
2022-09-23T11:00:22.495Z,101725.06
2022-09-23T11:02:59.019Z,101719.72
2022-09-23T11:05:32.836Z,101719.78
2022-09-23T11:08:24.056Z,101714.66
2022-09-23T11:11:11.361Z,101717.78
2022-09-23T11:14:19.254Z,101712.09
2022-09-23T11:17:08.376Z,101711.84
2022-09-23T11:19:50.744Z,101709.56
2022-09-23T11:22:32.409Z,101713.66
2022-09-23T11:25:18.440Z,101717.44
2022-09-23T11:28:04.226Z,101712.03
2022-09-23T11:30:47.230Z,101706.78
2022-09-23T11:33:45.235Z,101707.28
2022-09-23T11:36:55.215Z,101697.56
2022-09-23T11:39:33.067Z,101700.47
2022-09-23T11:42:01.943Z,101692.31
2022-09-23T11:44:50.251Z,101700.53
2022-09-23T11:47:35.235Z,101690.75
2022-09-23T11:50:34.121Z,101682.72
2022-09-23T11:53:14.330Z,101691.91
2022-09-23T11:55:57.964Z,101687.84
2022-09-23T11:58:33.712Z,101680.19
2022-09-23T12:01:37.974Z,101668.50
2022-09-23T12:04:31.929Z,101676.41
2022-09-23T12:07:03.360Z,101674.00
2022-09-23T12:09:59.314Z,101664.59
2022-09-23T12:12:27.263Z,101661.50
2022-09-23T12:15:32.017Z,101665.81
2022-09-23T12:18:17.490Z,101657.56
2022-09-23T12:21:07.585Z,101656.03
2022-09-23T12:24:25.055Z,101638.34
2022-09-23T12:26:56.993Z,101634.22
2022-09-23T12:31:55.935Z,101633.50
2022-09-23T12:35:00.409Z,101629.81
2022-09-23T12:40:47.718Z,101632.91
2022-09-23T12:43:40.976Z,101622.97
2022-09-23T12:46:28.261Z,101608.22
2022-09-23T12:49:00.191Z,101618.13
2022-09-23T12:51:35.969Z,101603.25
2022-09-23T12:54:06.356Z,101606.41
2022-09-23T12:56:36.647Z,101600.97
2022-09-23T12:59:27.640Z,101597.47
2022-09-23T13:01:56.373Z,101593.41
2022-09-23T13:05:01.248Z,101589.53
2022-09-23T13:07:34.908Z,101588.25
2022-09-23T13:10:09.276Z,101596.78
2022-09-23T13:12:40.908Z,101589.56
2022-09-23T13:15:34.606Z,101596.38
2022-09-23T13:18:25.337Z,101584.03
2022-09-23T13:20:55.282Z,101582.66
2022-09-23T13:23:35.589Z,101588.78
2022-09-23T13:26:14.730Z,101582.44
2022-09-23T13:28:59.732Z,101574.84
2022-09-23T13:31:27.470Z,101569.50
2022-09-23T13:34:08.544Z,101556.81
2022-09-23T13:36:50.167Z,101573.00
2022-09-23T13:39:27.993Z,101549.72
2022-09-23T13:42:05.413Z,101547.88
2022-09-23T13:44:32.975Z,101540.78
2022-09-23T13:47:03.692Z,101543.47
2022-09-23T13:49:35.858Z,101538.53
2022-09-23T13:52:03.936Z,101528.50
2022-09-23T13:54:36.891Z,101518.50
2022-09-23T13:57:08.338Z,101523.03
2022-09-23T13:59:42.519Z,101527.66
2022-09-23T14:02:15.165Z,101511.06
2022-09-23T14:04:44.161Z,101498.84
2022-09-23T14:07:14.645Z,101507.75
2022-09-23T14:09:48.031Z,101504.66
2022-09-23T14:12:24.581Z,101522.63
2022-09-23T14:14:53.174Z,101513.22
2022-09-23T14:17:26.888Z,101509.38
2022-09-23T14:19:55.131Z,101513.16
2022-09-23T14:22:31.897Z,101501.69
2022-09-23T14:25:02.421Z,101505.72
2022-09-23T14:27:37.097Z,101504.16
2022-09-23T14:30:05.347Z,101498.56
2022-09-23T14:32:36.139Z,101488.28
2022-09-23T14:35:04.365Z,101498.47
2022-09-23T14:37:56.296Z,101486.53
2022-09-23T14:40:27.006Z,101499.13
2022-09-23T14:43:08.357Z,101484.16
2022-09-23T14:45:39.806Z,101473.31
2022-09-23T14:48:14.556Z,101465.19
2022-09-23T14:50:50.102Z,101473.50
2022-09-23T14:53:26.363Z,101473.06
2022-09-23T14:56:09.165Z,101464.34
2022-09-23T14:58:52.606Z,101459.03
2022-09-23T15:01:39.627Z,101459.28
2022-09-23T15:04:38.112Z,101456.69
2022-09-23T15:07:18.333Z,101445.91
2022-09-23T15:09:46.234Z,101446.22
2022-09-23T15:12:21.011Z,101438.81
2022-09-23T15:14:57.373Z,101447.22
2022-09-23T15:17:38.507Z,101444.34
2022-09-23T15:20:16.989Z,101444.28
2022-09-23T15:22:51.352Z,101431.06
2022-09-23T15:25:42.234Z,101427.72
2022-09-23T15:28:12.785Z,101419.25
2022-09-23T15:30:44.133Z,101410.84
2022-09-23T15:33:16.254Z,101414.31
2022-09-23T15:35:51.830Z,101413.81
2022-09-23T15:38:18.995Z,101409.69
2022-09-23T15:40:46.881Z,101417.47
2022-09-23T15:43:23.701Z,101417.72
2022-09-23T15:46:11.861Z,101423.91
2022-09-23T15:48:58.434Z,101419.03
2022-09-23T15:51:28.380Z,101420.06
2022-09-23T15:53:56.752Z,101428.25
2022-09-23T15:56:27.245Z,101419.56
2022-09-23T15:58:55.479Z,101411.41
2022-09-23T16:01:34.129Z,101414.34
2022-09-23T16:04:08.631Z,101421.56
2022-09-23T16:06:36.374Z,101410.41
2022-09-23T16:09:05.375Z,101403.41
2022-09-23T16:11:33.369Z,101413.59
2022-09-23T16:14:01.699Z,101395.34
2022-09-23T16:16:29.510Z,101405.41
2022-09-23T16:18:59.145Z,101423.97
2022-09-23T16:21:29.280Z,101417.22
2022-09-23T16:23:58.532Z,101408.78
2022-09-23T16:26:35.143Z,101408.72
2022-09-23T16:29:04.684Z,101409.50
2022-09-23T16:31:32.073Z,101407.53
2022-09-23T16:34:02.881Z,101403.00
2022-09-23T16:36:31.877Z,101389.72
2022-09-23T16:39:04.904Z,101391.25
2022-09-23T16:41:33.246Z,101366.13
2022-09-23T16:44:07.830Z,101370.13
2022-09-23T16:46:35.858Z,101377.13
2022-09-23T16:49:03.883Z,101379.31
2022-09-23T16:51:38.679Z,101381.78
2022-09-23T16:54:13.250Z,101375.31
2022-09-23T16:56:44.940Z,101383.34
2022-09-23T16:59:14.918Z,101367.75
2022-09-23T17:02:01.832Z,101369.91
2022-09-23T17:04:29.325Z,101390.19
2022-09-23T17:06:57.604Z,101385.34
2022-09-23T17:09:29.713Z,101384.56
2022-09-23T17:12:17.259Z,101385.72
2022-09-23T17:14:51.079Z,101392.06
2022-09-23T17:17:26.359Z,101394.09
2022-09-23T17:19:53.976Z,101387.41
2022-09-23T17:22:24.889Z,101387.03
2022-09-23T17:24:56.668Z,101374.34
2022-09-23T17:27:25.268Z,101374.19
2022-09-23T17:29:52.512Z,101369.88
2022-09-23T17:32:21.724Z,101379.69
2022-09-23T17:34:48.895Z,101375.59
2022-09-23T17:37:16.418Z,101369.78
2022-09-23T17:39:47.172Z,101368.19
2022-09-23T17:42:15.661Z,101364.47
2022-09-23T17:44:43.610Z,101363.69
2022-09-23T17:47:11.178Z,101361.38
2022-09-23T17:49:38.537Z,101362.63
2022-09-23T17:52:08.469Z,101370.41
2022-09-23T17:54:41.006Z,101374.72
2022-09-23T17:57:08.718Z,101376.16
2022-09-23T17:59:35.823Z,101377.81
2022-09-23T18:02:03.211Z,101375.38
2022-09-23T18:04:30.740Z,101373.31
2022-09-23T18:06:58.164Z,101385.19
2022-09-23T18:09:28.973Z,101383.03
2022-09-23T18:12:01.662Z,101376.06
2022-09-23T18:14:32.454Z,101372.66
2022-09-23T18:17:00.313Z,101370.56
2022-09-23T18:19:30.759Z,101389.00
2022-09-23T18:22:02.713Z,101389.88
2022-09-23T18:24:35.074Z,101384.66
2022-09-23T18:27:02.847Z,101368.13
2022-09-23T18:29:31.718Z,101366.88
2022-09-23T18:31:59.883Z,101375.69
2022-09-23T18:34:30.813Z,101382.56
2022-09-23T18:36:58.564Z,101380.19
2022-09-23T18:39:26.128Z,101390.41
2022-09-23T18:41:53.584Z,101379.81
2022-09-23T18:44:20.835Z,101374.66
2022-09-23T18:46:49.913Z,101364.66
2022-09-23T18:49:35.976Z,101366.53
2022-09-23T18:52:03.465Z,101362.59
2022-09-23T18:54:34.125Z,101365.38
2022-09-23T18:57:06.168Z,101369.69
2022-09-23T18:59:33.678Z,101357.81
2022-09-23T19:02:04.145Z,101355.56
2022-09-23T19:04:32.624Z,101352.81
2022-09-23T19:07:02.356Z,101353.63
2022-09-23T19:09:29.582Z,101359.88
2022-09-23T19:11:58.168Z,101361.56
2022-09-23T19:14:26.474Z,101357.28
2022-09-23T19:16:57.456Z,101368.56
2022-09-23T19:19:25.806Z,101362.13
2022-09-23T19:21:54.935Z,101354.34
2022-09-23T19:24:24.351Z,101362.56
2022-09-23T19:26:54.257Z,101361.66
2022-09-23T19:29:22.155Z,101356.13
2022-09-23T19:31:49.812Z,101355.13
2022-09-23T19:34:40.455Z,101361.50
2022-09-23T19:37:11.948Z,101363.25
2022-09-23T19:39:51.600Z,101353.75
2022-09-23T19:42:19.642Z,101359.88
2022-09-23T19:45:03.562Z,101361.59
2022-09-23T19:47:44.985Z,101356.44
2022-09-23T19:50:18.227Z,101353.94
2022-09-23T19:52:52.143Z,101356.50
2022-09-23T19:55:22.551Z,101346.91
2022-09-23T19:57:51.594Z,101350.22
2022-09-23T20:00:20.618Z,101345.13
2022-09-23T20:02:49.149Z,101353.94
2022-09-23T20:05:20.262Z,101348.63
2022-09-23T20:07:47.906Z,101345.00
2022-09-23T20:10:15.678Z,101337.38
2022-09-23T20:12:44.108Z,101341.47
2022-09-23T20:15:14.872Z,101339.78
2022-09-23T20:17:44.339Z,101337.84
2022-09-23T20:20:13.609Z,101342.63
2022-09-23T20:22:42.011Z,101326.97
2022-09-23T20:25:14.262Z,101321.53
2022-09-23T20:27:49.898Z,101319.63
2022-09-23T20:30:23.440Z,101324.81
2022-09-23T20:32:51.503Z,101337.38
2022-09-23T20:35:18.756Z,101333.13
2022-09-23T20:37:48.422Z,101326.06
2022-09-23T20:40:16.340Z,101325.19
2022-09-23T20:42:43.860Z,101323.75
2022-09-23T20:45:14.458Z,101338.75
2022-09-23T20:47:44.112Z,101331.56
2022-09-23T20:50:14.010Z,101330.19
2022-09-23T20:52:41.888Z,101331.28
2022-09-23T20:55:09.404Z,101318.56
2022-09-23T20:57:36.675Z,101333.31
2022-09-23T21:00:04.895Z,101337.56
2022-09-23T21:02:32.631Z,101337.09
2022-09-23T21:05:02.579Z,101347.50
2022-09-23T21:07:33.522Z,101352.97
2022-09-23T21:10:05.706Z,101373.19
2022-09-23T21:12:33.009Z,101366.34
2022-09-23T21:15:00.757Z,101376.56
2022-09-23T21:17:28.615Z,101372.06
2022-09-23T21:19:55.836Z,101374.03
2022-09-23T21:22:26.603Z,101370.94
2022-09-23T21:25:26.265Z,101367.72
2022-09-23T21:27:47.793Z,101355.38
2022-09-23T21:30:17.665Z,101345.31
2022-09-23T21:32:51.254Z,101346.72
2022-09-23T21:35:19.436Z,101344.69
2022-09-23T21:37:49.402Z,101347.03
2022-09-23T21:40:37.335Z,101344.03
2022-09-23T21:43:06.841Z,101341.81
2022-09-23T21:45:34.344Z,101342.72
2022-09-23T21:48:01.853Z,101333.81
2022-09-23T21:50:30.947Z,101331.88
2022-09-23T21:52:58.587Z,101327.56
2022-09-23T21:55:26.028Z,101320.59
2022-09-23T21:57:53.669Z,101309.44
2022-09-23T22:00:26.549Z,101308.00
2022-09-23T22:02:56.753Z,101295.66
2022-09-23T22:05:24.308Z,101285.75
2022-09-23T22:07:55.110Z,101284.47
2022-09-23T22:10:22.877Z,101286.97
2022-09-23T22:12:52.457Z,101291.47
2022-09-23T22:15:19.921Z,101281.84
2022-09-23T22:17:50.407Z,101285.03
2022-09-23T22:20:17.746Z,101287.38
2022-09-23T22:22:45.178Z,101287.28
2022-09-23T22:25:13.168Z,101300.44
2022-09-23T22:28:00.184Z,101301.41
2022-09-23T22:30:45.847Z,101304.13
2022-09-23T22:33:18.327Z,101302.78
2022-09-23T22:35:45.747Z,101304.75
2022-09-23T22:38:12.888Z,101295.41
2022-09-23T22:40:43.522Z,101291.31
2022-09-23T22:43:13.821Z,101278.88
2022-09-23T22:45:49.620Z,101276.22
2022-09-23T22:48:18.359Z,101263.72
2022-09-23T22:50:46.333Z,101257.59
2022-09-23T22:53:14.142Z,101254.91
2022-09-23T22:55:43.076Z,101251.41
2022-09-23T22:58:30.676Z,101258.25
2022-09-23T23:01:04.827Z,101263.34
2022-09-23T23:03:35.499Z,101268.59
2022-09-23T23:06:05.882Z,101261.31
2022-09-23T23:08:33.920Z,101255.41
2022-09-23T23:11:07.537Z,101254.13
2022-09-23T23:13:34.873Z,101248.63
2022-09-23T23:16:07.520Z,101230.66
2022-09-23T23:18:37.591Z,101220.16
2022-09-23T23:21:18.260Z,101215.75
2022-09-23T23:23:52.602Z,101213.00
2022-09-23T23:26:23.233Z,101215.28
2022-09-23T23:28:52.369Z,101221.31
2022-09-23T23:31:24.081Z,101257.56
2022-09-23T23:33:51.404Z,101279.41
2022-09-23T23:36:21.140Z,101310.16
2022-09-23T23:38:50.221Z,101304.09
2022-09-23T23:41:20.713Z,101313.59
2022-09-23T23:43:52.363Z,101338.44
2022-09-23T23:46:26.762Z,101310.19
2022-09-23T23:48:55.753Z,101327.84
2022-09-23T23:51:24.847Z,101294.53
2022-09-23T23:53:54.153Z,101298.16
2022-09-23T23:56:24.252Z,101283.38
